Time;durP1;ratioP1;P1;durP2;ratioP2;P2;SDS_P1;SDS_P2;PMS_P1;PMS_P2;Temp;Humidity;BMP_temperature;BMP_pressure;BME280_temperature;BME280_humidity;BME280_pressure;Samples;Min_cycle;Max_cycle;Signal;HPM_P1;HPM_P2
2022/12/09 00:03:02;;;;;;;8.55;6.85;;;5.10;59.40;;;3.57;64.57;100430.38;12157008;19;20053;-82
2022/12/09 00:07:03;;;;;;;8.88;6.53;;;5.10;59.30;;;3.59;64.70;100438.06;12153553;19;20085;-83
2022/12/09 00:11:06;;;;;;;10.15;7.53;;;5.10;59.40;;;3.65;64.65;100453.38;12163714;19;21269;-83
2022/12/09 00:15:09;;;;;;;9.57;6.55;;;5.00;59.40;;;3.49;64.50;100440.94;12163086;19;20896;-83
2022/12/09 00:19:11;;;;;;;8.60;6.22;;;5.00;59.40;;;3.58;64.58;100450.13;12165091;19;20015;-83
2022/12/09 00:23:12;;;;;;;9.55;6.22;;;5.10;59.40;;;3.42;64.74;100426.50;12158225;19;20044;-82
2022/12/09 00:27:14;;;;;;;7.68;5.65;;;5.00;59.40;;;3.48;64.66;100444.41;12159021;19;20473;-82
2022/12/09 00:31:24;;;;;;;7.72;5.80;;;5.00;59.40;;;3.17;64.51;100399.78;12154795;19;20018;-83
2022/12/09 00:35:26;;;;;;;9.52;5.78;;;5.00;59.50;;;3.39;64.56;100436.94;12157219;19;20261;-83
2022/12/09 00:39:28;;;;;;;6.93;5.60;;;4.90;59.40;;;3.39;64.57;100452.41;12156115;19;20014;-83
2022/12/09 00:43:30;;;;;;;7.95;5.57;;;4.90;59.40;;;3.36;64.49;100460.25;12158015;19;20022;-82
2022/12/09 00:47:33;;;;;;;8.13;5.63;;;4.80;59.40;;;3.00;64.40;100408.00;12156463;19;20022;-82
2022/12/09 00:51:35;;;;;;;9.05;6.28;;;4.80;59.40;;;3.28;64.58;100446.72;12157837;19;20019;-82
2022/12/09 00:55:37;;;;;;;7.30;5.38;;;4.80;59.50;;;3.35;64.56;100468.91;12157301;19;20046;-82
2022/12/09 00:59:38;;;;;;;7.07;5.47;;;4.80;59.50;;;3.28;64.59;100470.81;12157253;19;20018;-82
2022/12/09 01:03:40;;;;;;;7.45;6.05;;;4.80;59.50;;;3.32;64.70;100479.28;12157428;19;21447;-83
2022/12/09 01:07:44;;;;;;;9.40;5.50;;;4.80;59.60;;;3.33;64.64;100484.41;12151840;19;20025;-82
2022/12/09 01:11:46;;;;;;;8.60;5.90;;;4.70;59.30;;;3.26;64.55;100476.88;12156409;19;20284;-82
2022/12/09 01:15:48;;;;;;;7.75;5.25;;;4.70;59.30;;;3.30;64.48;100478.50;12155313;19;20359;-82
2022/12/09 01:19:49;;;;;;;6.80;5.28;;;4.70;59.30;;;3.23;64.66;100472.66;12155014;19;20022;-82
2022/12/09 01:23:52;;;;;;;8.25;5.18;;;4.90;59.40;;;3.17;64.50;100466.84;12157567;19;20098;-82
2022/12/09 01:27:54;;;;;;;7.82;5.63;;;4.80;59.40;;;3.17;64.65;100477.16;12156711;19;20562;-81
2022/12/09 01:31:55;;;;;;;6.45;5.65;;;4.80;59.40;;;3.12;64.63;100463.56;12150535;19;20125;-82
2022/12/09 01:35:57;;;;;;;9.35;6.22;;;4.60;59.30;;;3.04;64.50;100467.19;12149287;19;20496;-82
2022/12/09 01:39:59;;;;;;;11.50;6.20;;;4.70;59.30;;;3.15;64.53;100481.53;12150759;19;20794;-82
2022/12/09 01:44:18;;;;;;;10.00;6.00;;;4.60;59.30;;;2.99;64.49;100479.38;12151995;19;20269;-81
2022/12/09 01:48:28;;;;;;;7.25;4.82;;;4.60;59.20;;;2.98;64.57;100482.84;12153147;19;20398;-82
2022/12/09 01:52:30;;;;;;;9.07;5.68;;;4.50;59.10;;;2.96;64.45;100476.88;12161672;19;20113;-82
2022/12/09 01:56:35;;;;;;;8.30;6.13;;;4.70;59.20;;;2.92;64.39;100482.16;12161686;19;20109;-81
2022/12/09 02:00:38;;;;;;;8.30;6.05;;;4.50;59.10;;;2.88;64.57;100478.81;12163818;19;20049;-81
2022/12/09 02:04:44;;;;;;;8.50;5.90;;;4.40;59.10;;;2.90;64.47;100482.22;12162186;19;21133;-82
2022/12/09 02:08:49;;;;;;;7.93;6.00;;;4.30;59.10;;;2.93;64.49;100486.44;12164625;19;20043;-82
2022/12/09 02:13:12;;;;;;;9.15;6.03;;;4.40;59.10;;;2.87;64.54;100488.28;12159839;19;20395;-81
2022/12/09 02:17:40;;;;;;;7.43;4.85;;;4.30;59.00;;;2.74;64.38;100478.34;12160114;19;20019;-82
2022/12/09 02:21:58;;;;;;;10.40;6.28;;;4.30;59.10;;;2.79;64.53;100497.13;12160466;19;20396;-83
2022/12/09 02:26:39;;;;;;;9.10;5.85;;;4.30;59.20;;;2.74;64.33;100486.09;12161055;19;20019;-82
2022/12/09 02:31:17;;;;;;;8.68;5.40;;;4.20;59.10;;;2.76;64.23;100497.22;12159799;19;20018;-82
2022/12/09 02:35:35;;;;;;;11.98;7.03;;;4.20;59.00;;;2.58;64.40;100470.19;12158528;19;20014;-82
2022/12/09 02:40:23;;;;;;;11.50;6.70;;;4.20;58.90;;;2.60;64.33;100487.31;12153137;19;20026;-81
2022/12/09 02:44:26;;;;;;;9.73;6.88;;;4.10;58.90;;;2.64;64.34;100499.22;12157645;19;20267;-81
2022/12/09 02:48:38;;;;;;;11.02;7.97;;;4.10;58.90;;;2.61;64.28;100488.16;12160056;19;20023;-81
2022/12/09 02:52:43;;;;;;;10.25;6.63;;;4.00;58.90;;;2.57;64.18;100482.22;12155983;19;20019;-82
2022/12/09 02:57:01;;;;;;;11.40;7.13;;;4.00;58.90;;;2.43;64.17;100467.13;12157078;19;20038;-82
2022/12/09 03:01:17;;;;;;;10.20;6.55;;;4.00;59.00;;;2.52;64.20;100475.50;12162946;19;20014;-82
2022/12/09 03:05:35;;;;;;;10.13;6.32;;;3.90;59.00;;;2.46;64.32;100476.50;12163781;19;20010;-82
2022/12/09 03:09:43;;;;;;;9.20;6.22;;;3.90;59.00;;;2.38;64.48;100466.41;12167237;19;20019;-82
2022/12/09 03:14:34;;;;;;;11.13;6.50;;;3.90;59.00;;;2.34;64.24;100471.66;12160732;19;20014;-81
2022/12/09 03:18:42;;;;;;;7.72;5.63;;;3.80;59.10;;;2.30;64.45;100477.78;12158425;19;20014;-81
2022/12/09 03:22:46;;;;;;;9.35;5.97;;;3.80;59.00;;;2.24;64.57;100477.91;12160360;19;20054;-82
2022/12/09 03:26:50;;;;;;;8.30;5.33;;;3.80;59.10;;;2.34;64.39;100487.97;12151559;19;20323;-82
2022/12/09 03:30:53;;;;;;;10.02;6.32;;;3.70;59.20;;;2.18;64.53;100459.16;12148568;19;20115;-81
2022/12/09 03:35:08;;;;;;;9.15;6.13;;;3.70;59.20;;;2.15;64.21;100459.25;12155961;19;20790;-82
2022/12/09 03:39:15;;;;;;;9.13;6.07;;;3.80;59.20;;;2.10;64.45;100457.66;12159923;19;20023;-81
2022/12/09 03:43:26;;;;;;;9.07;5.65;;;3.90;59.30;;;2.18;64.19;100473.78;12156726;19;20105;-82
2022/12/09 03:47:28;;;;;;;11.02;6.55;;;3.70;59.00;;;2.14;64.44;100465.28;12155828;19;21026;-81
2022/12/09 03:51:58;;;;;;;9.45;5.68;;;3.70;59.10;;;2.11;64.43;100467.94;12153741;19;20032;-81
2022/12/09 03:56:17;;;;;;;8.43;5.75;;;3.70;59.20;;;2.06;64.38;100466.38;12162501;19;20082;-82
2022/12/09 04:00:19;;;;;;;11.52;7.53;;;3.60;59.20;;;2.07;64.53;100470.63;12162687;19;20018;-81
2022/12/09 04:04:21;;;;;;;10.45;6.82;;;3.60;59.30;;;2.10;64.49;100471.38;12161546;19;20411;-81
2022/12/09 04:08:22;;;;;;;8.80;6.05;;;3.60;59.20;;;1.94;64.50;100449.47;12161927;19;20093;-81
2022/12/09 04:12:24;;;;;;;10.93;7.05;;;3.60;59.20;;;1.98;64.40;100469.13;12156596;19;20547;-81
2022/12/09 04:16:26;;;;;;;11.93;6.68;;;3.50;59.20;;;1.91;64.46;100450.38;12157026;19;20315;-80
2022/12/09 04:20:27;;;;;;;10.88;6.45;;;3.60;59.30;;;1.92;64.43;100451.25;12161659;19;20391;-82
2022/12/09 04:24:29;;;;;;;9.50;6.22;;;3.50;59.40;;;2.03;64.45;100480.16;12158565;19;20939;-81
2022/12/09 04:28:31;;;;;;;11.00;7.05;;;3.50;59.40;;;1.97;64.26;100470.84;12160426;19;20014;-81
2022/12/09 04:32:33;;;;;;;10.18;6.93;;;3.50;59.40;;;1.36;64.43;100364.19;12156044;19;20021;-81
2022/12/09 04:36:35;;;;;;;10.13;6.13;;;3.50;59.40;;;1.89;64.39;100451.28;12158959;19;20932;-81
2022/12/09 04:40:37;;;;;;;10.05;6.10;;;3.50;59.50;;;1.96;64.51;100469.13;12152557;19;20026;-81
2022/12/09 04:44:39;;;;;;;9.95;6.80;;;3.70;59.60;;;1.99;64.70;100468.22;12160057;19;20256;-81
2022/12/09 04:48:42;;;;;;;7.35;5.32;;;3.60;59.60;;;1.67;64.41;100415.78;12156200;19;20019;-81
2022/12/09 04:52:44;;;;;;;8.45;6.15;;;3.60;59.60;;;1.83;64.47;100446.31;12161156;19;20022;-82
2022/12/09 04:56:48;;;;;;;7.93;5.70;;;3.40;59.60;;;1.97;64.71;100476.00;12159292;19;20017;-81
2022/12/09 05:00:49;;;;;;;5.70;4.53;;;3.40;59.50;;;1.94;64.74;100481.19;12156272;19;20029;-81
2022/12/09 05:04:51;;;;;;;6.88;4.72;;;3.40;59.60;;;1.92;64.72;100477.00;12150998;19;20039;-81
2022/12/09 05:08:53;;;;;;;6.30;4.82;;;3.50;59.80;;;2.01;64.78;100481.06;12151813;19;20011;-81
2022/12/09 05:12:55;;;;;;;9.55;5.28;;;3.70;59.90;;;1.95;64.61;100467.47;12145955;19;20015;-82
2022/12/09 05:16:57;;;;;;;7.13;4.75;;;3.50;59.70;;;1.87;64.40;100453.09;12146433;19;20026;-81
2022/12/09 05:21:08;;;;;;;8.93;5.22;;;3.50;59.60;;;2.01;64.67;100487.06;12151085;19;20014;-81
2022/12/09 05:25:10;;;;;;;7.60;5.18;;;3.50;59.60;;;1.90;64.64;100466.72;12154887;19;20608;-82
2022/12/09 05:29:12;;;;;;;8.20;5.68;;;3.50;59.70;;;1.99;64.46;100486.25;12161816;19;20045;-81
2022/12/09 05:33:13;;;;;;;8.00;5.65;;;3.50;59.60;;;2.03;64.66;100487.88;12159468;19;20049;-81
2022/12/09 05:37:15;;;;;;;7.82;5.55;;;3.50;59.60;;;1.98;64.57;100480.25;12160328;19;20988;-81
2022/12/09 05:41:18;;;;;;;8.70;5.75;;;3.50;59.50;;;1.91;64.64;100472.72;12163691;19;20018;-81
2022/12/09 05:45:20;;;;;;;8.95;5.38;;;3.50;59.50;;;1.94;64.65;100480.34;12159166;19;20736;-80
2022/12/09 05:49:22;;;;;;;10.15;6.32;;;3.50;59.60;;;1.96;64.46;100486.31;12163904;19;20013;-81
2022/12/09 05:53:24;;;;;;;9.93;5.90;;;3.70;59.60;;;1.93;64.58;100478.69;12155984;19;20022;-81
2022/12/09 05:57:26;;;;;;;8.38;5.45;;;3.50;59.60;;;1.94;64.59;100480.34;12160678;19;20031;-81
2022/12/09 06:01:28;;;;;;;8.70;5.95;;;3.50;59.60;;;1.90;64.54;100473.59;12162838;19;20877;-81
2022/12/09 06:05:30;;;;;;;8.20;5.43;;;3.50;59.70;;;1.87;64.72;100469.38;12161968;19;20093;-81
2022/12/09 06:09:32;;;;;;;7.50;4.80;;;3.60;59.70;;;1.92;64.74;100474.41;12163383;19;20372;-81
2022/12/09 06:13:34;;;;;;;7.15;5.13;;;3.70;59.80;;;1.93;64.79;100476.09;12158789;19;20022;-81
2022/12/09 06:17:39;;;;;;;6.93;4.88;;;3.50;59.80;;;1.93;64.94;100481.25;12153213;19;20027;-81
2022/12/09 06:21:41;;;;;;;8.52;5.03;;;3.40;59.80;;;1.86;64.87;100462.50;12162882;19;20026;-81
2022/12/09 06:25:44;;;;;;;6.20;4.60;;;3.70;60.00;;;1.96;64.77;100482.03;12168614;19;20014;-81
2022/12/09 06:29:46;;;;;;;6.20;4.85;;;3.50;59.80;;;2.01;64.82;100481.91;12172282;19;20019;-82
2022/12/09 06:33:52;;;;;;;7.65;5.40;;;3.50;59.80;;;1.83;64.63;100462.59;12179890;19;20045;-81
2022/12/09 06:37:54;;;;;;;7.63;4.72;;;3.50;59.80;;;1.91;64.54;100480.44;12176570;19;20015;-82
2022/12/09 06:41:56;;;;;;;7.30;4.75;;;3.80;59.80;;;1.94;64.71;100488.94;12174035;19;20022;-82
2022/12/09 06:45:58;;;;;;;6.45;4.80;;;3.50;59.70;;;1.93;64.69;100491.56;12168730;19;20012;-81
2022/12/09 06:50:00;;;;;;;5.15;4.03;;;3.70;59.70;;;1.95;64.69;100511.22;12166719;19;20069;-81
2022/12/09 06:54:03;;;;;;;5.68;4.05;;;3.50;59.60;;;1.91;64.58;100501.88;12166313;19;20037;-82
2022/12/09 06:58:05;;;;;;;5.22;3.40;;;3.50;59.60;;;1.89;64.69;100513.97;12179803;19;20121;-81
2022/12/09 07:02:09;;;;;;;4.63;3.65;;;3.40;59.60;;;1.84;64.85;100502.06;12182778;19;20367;-81
2022/12/09 07:06:32;;;;;;;6.78;4.35;;;3.40;59.70;;;1.79;64.69;100497.03;12166745;19;20820;-82
2022/12/09 07:10:35;;;;;;;6.90;3.90;;;3.40;59.70;;;1.85;64.75;100514.91;12175828;19;20292;-82
2022/12/09 07:14:37;;;;;;;5.78;3.72;;;3.40;59.60;;;1.76;64.83;100500.50;12175841;19;20022;-81
2022/12/09 07:18:39;;;;;;;5.93;4.05;;;3.60;59.70;;;1.86;64.57;100518.31;12176864;19;20360;-81
2022/12/09 07:22:40;;;;;;;4.03;3.28;;;3.60;59.70;;;1.82;64.88;100516.69;12174752;19;20011;-81
2022/12/09 07:26:42;;;;;;;4.10;3.65;;;3.40;59.60;;;1.80;64.77;100503.84;12166351;19;20404;-81
2022/12/09 07:30:44;;;;;;;4.50;3.25;;;3.40;59.80;;;1.86;64.82;100520.88;12169633;19;20882;-81
2022/12/09 07:34:46;;;;;;;4.28;3.33;;;3.40;59.70;;;1.77;64.67;100511.66;12183920;19;20015;-81
2022/12/09 07:38:52;;;;;;;5.70;3.83;;;3.40;59.70;;;1.86;64.64;100526.88;12187882;19;20415;-81
2022/12/09 07:42:54;;;;;;;3.45;3.00;;;3.30;59.70;;;1.84;64.79;100522.66;12185825;19;20882;-82
2022/12/09 07:46:56;;;;;;;4.07;3.00;;;3.30;59.70;;;1.73;64.63;100504.91;12180735;19;20395;-81
2022/12/09 07:51:00;;;;;;;5.78;3.72;;;3.30;59.70;;;1.80;64.66;100519.28;12174301;19;20395;-82
2022/12/09 07:55:02;;;;;;;5.05;3.28;;;3.30;59.70;;;1.76;64.91;100510.81;12179400;19;20014;-81
2022/12/09 07:59:09;;;;;;;3.63;3.25;;;3.30;59.70;;;1.75;64.84;100510.81;12178356;19;20011;-81
2022/12/09 08:03:12;;;;;;;4.65;3.90;;;3.30;59.80;;;1.83;64.83;100529.53;12174830;19;20875;-81
2022/12/09 08:07:14;;;;;;;5.32;4.15;;;3.30;59.90;;;1.89;64.91;100539.72;12162675;19;21176;-81
2022/12/09 08:11:23;;;;;;;5.50;3.92;;;3.70;60.20;;;1.74;64.77;100510.00;12156531;19;20020;-81
2022/12/09 08:15:25;;;;;;;4.47;3.53;;;3.40;59.90;;;1.79;64.84;100516.78;12153354;19;20094;-82
2022/12/09 08:19:27;;;;;;;5.50;3.72;;;3.40;59.80;;;1.87;64.64;100520.03;12160643;19;20424;-81
2022/12/09 08:23:29;;;;;;;3.33;2.85;;;3.60;59.90;;;1.79;64.80;100507.31;12165929;19;20627;-81
2022/12/09 08:27:31;;;;;;;3.70;3.15;;;3.40;59.80;;;1.91;64.88;100534.50;12157934;19;20125;-80
2022/12/09 08:31:33;;;;;;;4.88;3.67;;;3.40;59.90;;;1.83;64.74;100520.97;12164416;19;20018;-81
2022/12/09 08:35:36;;;;;;;5.05;3.67;;;3.40;60.00;;;1.86;65.05;100520.88;12168090;19;20027;-82
2022/12/09 08:39:41;;;;;;;5.22;3.70;;;3.50;60.00;;;1.71;65.07;100493.78;12172908;19;20412;-82
2022/12/09 08:43:48;;;;;;;3.88;2.88;;;3.50;60.10;;;1.87;64.90;100518.28;12174395;19;20014;-82
2022/12/09 08:47:50;;;;;;;4.72;3.33;;;3.50;60.10;;;1.98;64.86;100538.66;12173715;19;20599;-82
2022/12/09 08:51:52;;;;;;;3.88;2.97;;;3.70;60.10;;;2.02;64.95;100541.97;12163151;19;20007;-81
2022/12/09 08:56:28;;;;;;;7.10;4.75;;;3.50;60.00;;;2.00;64.85;100529.16;12156906;19;20019;-84
2022/12/09 09:00:30;;;;;;;5.70;3.80;;;3.60;60.00;;;2.03;64.94;100541.97;12165139;19;20017;-81
2022/12/09 09:04:33;;;;;;;4.78;3.92;;;3.60;60.00;;;2.04;64.84;100551.38;12170274;19;20018;-83
2022/12/09 09:08:35;;;;;;;6.63;3.97;;;3.60;60.00;;;2.06;64.67;100551.34;12156287;19;20041;-82
2022/12/09 09:12:36;;;;;;;4.00;3.38;;;3.60;60.10;;;1.87;64.89;100520.88;12157281;19;20050;-82
2022/12/09 09:16:42;;;;;;;3.72;3.03;;;3.60;59.90;;;1.98;64.87;100546.38;12167152;19;20014;-81
2022/12/09 09:20:51;;;;;;;3.35;3.00;;;3.90;60.00;;;1.67;64.78;100505.84;12165868;19;20026;-81
2022/12/09 09:24:53;;;;;;;4.78;3.05;;;3.50;59.70;;;1.88;64.91;100543.13;12152219;19;20055;-82
2022/12/09 09:28:55;;;;;;;3.55;2.97;;;3.50;59.70;;;1.94;65.00;100558.44;12157977;19;20021;-81
2022/12/09 09:32:56;;;;;;;3.53;2.58;;;3.50;59.80;;;1.93;64.76;100546.47;12146372;19;20019;-82
2022/12/09 09:36:58;;;;;;;3.33;2.65;;;3.50;59.90;;;1.90;65.12;100546.53;12170518;19;20038;-82
2022/12/09 09:41:06;;;;;;;4.25;2.88;;;3.50;60.00;;;1.96;64.94;100555.84;12173651;19;20047;-82
2022/12/09 09:45:14;;;;;;;5.15;3.22;;;3.50;60.00;;;2.00;64.90;100554.91;12173132;19;20649;-81
2022/12/09 09:49:34;;;;;;;4.72;3.20;;;3.50;60.00;;;2.01;64.91;100555.75;12174584;19;20024;-82
2022/12/09 09:53:36;;;;;;;4.53;2.92;;;3.70;60.10;;;1.91;65.14;100530.19;12174225;19;20018;-81
2022/12/09 09:58:12;;;;;;;4.00;3.13;;;3.60;60.10;;;2.05;65.06;100542.75;12168050;19;20018;-81
2022/12/09 10:02:38;;;;;;;2.85;2.35;;;3.60;60.20;;;1.94;64.66;100526.69;12172160;19;20643;-81
2022/12/09 10:07:01;;;;;;;2.67;2.47;;;3.60;60.00;;;1.94;64.73;100529.28;12172698;19;20265;-82
2022/12/09 10:11:31;;;;;;;2.20;1.98;;;3.60;59.90;;;1.98;64.95;100541.22;12172175;19;20101;-81
2022/12/09 10:15:47;;;;;;;3.78;2.60;;;3.60;60.00;;;2.02;65.05;100534.25;12177696;19;20086;-82
2022/12/09 10:19:55;;;;;;;2.92;1.92;;;3.70;60.30;;;2.06;64.87;100530.75;12173581;19;20014;-80
2022/12/09 10:24:27;;;;;;;2.90;2.63;;;3.80;60.40;;;1.97;65.07;100522.34;12176072;19;20821;-82
2022/12/09 10:28:45;;;;;;;2.75;2.40;;;3.90;60.40;;;1.88;64.90;100508.84;12177624;19;20379;-80
2022/12/09 10:32:52;;;;;;;2.50;2.15;;;3.60;60.10;;;2.04;65.00;100520.47;12167454;19;20404;-80
2022/12/09 10:36:54;;;;;;;2.88;2.33;;;3.60;59.90;;;2.05;65.08;100518.72;12172727;19;20027;-80
2022/12/09 10:41:05;;;;;;;3.83;2.67;;;3.60;60.00;;;2.11;64.96;100529.75;12168715;19;20021;-81
2022/12/09 10:45:07;;;;;;;2.53;2.33;;;3.70;60.10;;;2.07;64.92;100520.38;12160400;19;20019;-81
2022/12/09 10:49:20;;;;;;;2.58;2.30;;;3.60;60.00;;;2.07;65.05;100527.28;12169258;19;20982;-80
2022/12/09 10:53:22;;;;;;;2.78;2.00;;;3.60;59.90;;;1.96;64.88;100497.47;12164116;19;20587;-80
2022/12/09 10:57:28;;;;;;;3.58;2.53;;;3.60;59.90;;;2.06;65.14;100510.16;12168321;19;20026;-80
2022/12/09 11:01:29;;;;;;;2.80;2.20;;;3.60;59.90;;;2.10;65.04;100511.75;12172555;19;20602;-81
2022/12/09 11:05:35;;;;;;;3.30;2.80;;;3.60;59.90;;;1.98;64.75;100484.56;12170932;19;20018;-83
2022/12/09 11:09:42;;;;;;;3.22;2.58;;;3.60;60.00;;;2.10;65.02;100499.72;12165866;19;20853;-83
2022/12/09 11:13:45;;;;;;;3.53;2.72;;;3.60;60.10;;;2.09;64.89;100485.16;12164702;19;20050;-82
2022/12/09 11:18:06;;;;;;;4.22;2.78;;;3.60;60.20;;;2.09;64.80;100492.03;12159538;19;20022;-83
2022/12/09 11:22:44;;;;;;;3.42;2.45;;;3.60;60.10;;;2.08;65.02;100486.06;12159035;19;20015;-83
2022/12/09 11:26:46;;;;;;;3.55;2.90;;;3.70;60.30;;;2.18;65.05;100486.66;12158422;19;20412;-82
2022/12/09 11:31:06;;;;;;;3.33;2.83;;;3.70;60.40;;;2.20;65.08;100485.72;12174395;19;20113;-82
2022/12/09 11:35:18;;;;;;;3.90;2.95;;;3.70;60.50;;;2.23;64.84;100492.53;12167770;19;20019;-81
2022/12/09 11:39:33;;;;;;;5.55;3.72;;;3.80;60.60;;;2.15;64.94;100469.53;12164219;19;20125;-82
2022/12/09 11:43:55;;;;;;;4.15;3.42;;;3.80;60.70;;;2.15;65.03;100469.53;12161466;19;20018;-81
2022/12/09 11:48:18;;;;;;;5.93;4.30;;;3.80;60.50;;;2.14;65.11;100465.28;12168566;19;20292;-81
2022/12/09 11:52:27;;;;;;;4.43;3.40;;;3.80;60.40;;;2.20;65.10;100467.69;12164172;19;20027;-80
2022/12/09 11:56:31;;;;;;;5.30;3.30;;;3.80;60.30;;;2.19;65.06;100468.59;12161112;19;20587;-82
2022/12/09 12:01:03;;;;;;;4.97;3.08;;;3.80;60.50;;;2.17;65.20;100460.06;12168254;19;20019;-82
2022/12/09 12:05:16;;;;;;;4.43;3.20;;;3.80;60.50;;;2.20;64.90;100472.00;12167652;19;20029;-81
2022/12/09 12:09:49;;;;;;;3.85;2.90;;;3.80;60.50;;;2.27;65.07;100480.41;12165687;19;20018;-82
2022/12/09 12:14:11;;;;;;;2.95;2.35;;;3.80;60.60;;;2.27;65.05;100467.53;12165716;19;20046;-82
2022/12/09 12:18:21;;;;;;;2.22;2.05;;;3.80;60.50;;;2.21;65.17;100464.25;12163360;19;20033;-81
2022/12/09 12:22:58;;;;;;;3.85;3.10;;;3.80;60.50;;;2.32;64.96;100465.69;12156836;19;20018;-82
2022/12/09 12:27:33;;;;;;;6.05;2.88;;;3.90;60.70;;;2.29;65.13;100450.31;12156449;19;20744;-83
2022/12/09 12:31:59;;;;;;;2.70;2.40;;;3.80;60.60;;;2.34;65.05;100459.63;12126554;19;20499;-83
2022/12/09 12:36:28;;;;;;;3.83;2.75;;;3.90;60.80;;;2.34;65.08;100449.31;12154720;19;20517;-83
2022/12/09 12:41:10;;;;;;;4.88;4.38;;;3.90;60.60;;;2.39;64.96;100446.63;12169673;19;20014;-82
2022/12/09 12:50:14;;;;;;;4.60;3.42;;;3.90;60.70;;;2.32;64.88;100439.94;12160358;19;21232;-84
2022/12/09 12:54:48;;;;;;;4.25;2.78;;;3.90;60.80;;;2.35;64.90;100440.72;12154726;19;20025;-85
2022/12/09 12:59:26;;;;;;;4.60;3.33;;;3.90;60.70;;;2.38;65.04;100444.94;12169359;19;20014;-85
2022/12/09 13:03:52;;;;;;;3.65;3.03;;;3.90;60.80;;;2.34;65.14;100425.28;12168813;19;20555;-84
2022/12/09 13:08:15;;;;;;;3.75;2.75;;;3.90;60.80;;;2.42;65.04;100433.66;12154374;19;20023;-85
2022/12/09 13:16:59;;;;;;;9.23;6.00;;;3.90;60.90;;;2.43;65.10;100435.34;12145393;19;20021;-86
2022/12/09 13:21:04;;;;;;;10.93;5.88;;;3.90;60.80;;;2.46;65.13;100432.72;12154210;19;20014;-84
2022/12/09 13:25:31;;;;;;;7.45;4.47;;;4.00;61.00;;;2.50;65.14;100447.19;12161221;19;20022;-84
2022/12/09 13:29:58;;;;;;;5.40;3.42;;;4.00;60.90;;;2.37;64.94;100422.63;12153891;19;20505;-84
2022/12/09 13:34:35;;;;;;;3.05;2.63;;;4.00;60.70;;;2.49;65.03;100453.25;12154616;19;20061;-84
2022/12/09 13:38:41;;;;;;;5.20;3.60;;;4.00;60.50;;;2.44;65.13;100444.78;12147364;19;20268;-84
2022/12/09 13:42:52;;;;;;;3.60;3.17;;;4.00;60.60;;;2.37;64.98;100444.06;12138099;19;20820;-85
2022/12/09 13:47:11;;;;;;;7.80;4.82;;;4.20;60.60;;;2.37;64.94;100436.34;12147170;19;20787;-84
2022/12/09 13:51:13;;;;;;;5.78;4.20;;;4.00;60.40;;;2.46;65.17;100455.91;12155954;19;20340;-85
2022/12/09 13:55:33;;;;;;;4.32;3.13;;;4.00;60.60;;;2.40;65.12;100443.16;12174179;19;20047;-84
2022/12/09 13:59:48;;;;;;;3.55;3.20;;;4.00;60.70;;;2.42;65.07;100441.38;12171879;19;20340;-84
2022/12/09 14:04:30;;;;;;;4.05;3.25;;;4.00;60.70;;;2.51;65.01;100464.34;12170381;19;20015;-84
2022/12/09 14:09:24;;;;;;;4.70;3.38;;;4.00;60.80;;;2.53;65.16;100460.00;12141780;19;20873;-80
2022/12/09 14:13:30;;;;;;;3.33;2.97;;;4.00;60.80;;;2.57;65.24;100456.47;12160286;19;20042;-81
2022/12/09 14:17:59;;;;;;;6.35;4.10;;;4.10;60.80;;;2.58;65.09;100457.28;12171478;19;20018;-81
2022/12/09 14:22:17;;;;;;;4.63;3.55;;;4.10;60.80;;;2.57;65.04;100456.47;12182115;19;20035;-84
2022/12/09 14:27:06;;;;;;;5.72;3.85;;;4.10;60.60;;;2.48;64.95;100451.53;12173711;19;20501;-83
2022/12/09 14:31:08;;;;;;;6.60;3.55;;;4.10;60.50;;;2.55;65.14;100452.22;12165444;19;20587;-84
2022/12/09 14:35:10;;;;;;;3.63;3.22;;;4.20;60.70;;;2.59;65.28;100459.84;12179058;19;20018;-83
2022/12/09 14:39:27;;;;;;;5.20;3.88;;;4.20;60.50;;;2.41;65.13;100424.25;12180409;19;20372;-83
2022/12/09 14:43:58;;;;;;;4.70;3.53;;;4.10;60.40;;;2.56;64.95;100459.06;12174557;19;20472;-83
2022/12/09 14:48:00;;;;;;;5.55;3.90;;;4.10;60.30;;;2.51;64.93;100459.22;12176701;19;20025;-83
2022/12/09 14:52:16;;;;;;;4.15;3.47;;;4.10;60.20;;;2.43;65.15;100437.91;12165236;19;20015;-83
2022/12/09 14:56:21;;;;;;;4.95;4.18;;;4.00;60.20;;;2.51;65.16;100456.63;12168061;19;20019;-83
2022/12/09 15:00:43;;;;;;;5.45;3.75;;;4.00;60.20;;;2.46;65.22;100461.06;12173407;19;20295;-83
2022/12/09 15:04:47;;;;;;;4.80;3.40;;;4.00;60.40;;;2.38;65.00;100437.22;12175087;19;20022;-83
2022/12/09 15:08:57;;;;;;;4.70;3.40;;;4.00;60.20;;;2.51;65.28;100460.91;12169529;19;20851;-83
2022/12/09 15:13:00;;;;;;;4.47;3.15;;;4.00;60.20;;;2.52;65.17;100468.63;12168657;19;20022;-83
2022/12/09 15:17:02;;;;;;;3.67;2.90;;;4.00;60.00;;;2.39;65.16;100449.22;12170764;19;20019;-83
2022/12/09 15:21:03;;;;;;;6.28;3.67;;;4.10;60.10;;;2.32;65.10;100427.06;12168150;19;20015;-83
2022/12/09 15:25:16;;;;;;;4.93;3.40;;;4.10;60.00;;;2.54;64.86;100469.44;12169433;19;20038;-83
2022/12/09 15:29:20;;;;;;;4.65;3.40;;;4.10;59.90;;;2.55;65.10;100468.53;12171332;19;20937;-83
2022/12/09 15:33:23;;;;;;;5.70;4.18;;;4.10;60.00;;;2.45;64.86;100467.06;12170057;19;20822;-83
2022/12/09 15:37:27;;;;;;;6.53;4.47;;;4.00;59.80;;;2.36;64.80;100472.47;12175195;19;20965;-83
2022/12/09 15:46:00;;;;;;;6.28;4.43;;;4.00;59.60;;;2.25;64.81;100470.16;12173187;19;20440;-83
2022/12/09 15:50:17;;;;;;;5.43;4.20;;;4.00;59.60;;;2.35;64.91;100486.22;12174193;19;20473;-83
2022/12/09 15:54:28;;;;;;;8.40;5.28;;;3.90;59.50;;;2.28;64.93;100477.81;12182586;19;20268;-83
2022/12/09 15:58:39;;;;;;;7.45;4.57;;;3.80;59.50;;;2.25;65.03;100472.75;12172902;19;20300;-83
2022/12/09 16:02:44;;;;;;;5.63;4.07;;;3.80;59.60;;;2.14;65.02;100444.69;12158455;19;20078;-83
2022/12/09 16:06:46;;;;;;;;;;;3.80;60.10;;;2.00;64.94;100431.31;12159090;19;20022;-83
2022/12/09 16:10:50;;;;;;;8.30;4.70;;;3.80;59.80;;;2.17;64.96;100464.38;12156534;19;19950;-82
2022/12/09 16:14:52;;;;;;;10.00;5.43;;;3.80;59.70;;;1.66;64.96;100380.63;12160630;19;20109;-83
2022/12/09 16:18:55;;;;;;;8.27;5.35;;;3.70;59.60;;;2.22;64.83;100478.81;12164650;19;20383;-83
2022/12/09 16:22:58;;;;;;;10.10;5.55;;;3.70;59.60;;;2.12;64.72;100467.03;12166343;19;20602;-83
2022/12/09 16:27:04;;;;;;;8.65;4.93;;;3.80;59.70;;;2.12;64.97;100471.34;12163010;19;20026;-83
2022/12/09 16:31:17;;;;;;;9.70;5.13;;;3.70;59.60;;;1.97;64.60;100441.66;12156874;19;20022;-83
2022/12/09 16:36:02;;;;;;;10.52;6.72;;;3.60;59.70;;;2.09;64.72;100467.13;12157033;19;20451;-83
2022/12/09 16:40:22;;;;;;;10.73;6.07;;;3.60;59.70;;;2.06;64.62;100477.50;12153881;19;20039;-83
2022/12/09 16:44:35;;;;;;;11.27;5.60;;;3.60;59.70;;;2.01;64.96;100474.19;12158603;19;20022;-83
2022/12/09 16:48:37;;;;;;;9.02;5.50;;;3.50;59.70;;;1.99;65.06;100471.63;12156932;19;20029;-83
2022/12/09 16:52:39;;;;;;;12.27;7.45;;;3.50;59.80;;;1.84;64.98;100441.13;12154474;19;20339;-83
2022/12/09 16:56:40;;;;;;;11.63;6.65;;;3.50;59.90;;;1.83;64.84;100438.56;12154899;19;20030;-83
2022/12/09 17:00:42;;;;;;;8.93;6.05;;;3.50;59.90;;;1.99;64.92;100470.81;12151671;19;20026;-83
2022/12/09 17:04:44;;;;;;;10.45;6.25;;;3.50;59.90;;;1.90;64.90;100455.59;12157757;19;20018;-83
2022/12/09 17:08:47;;;;;;;7.53;5.25;;;3.60;59.90;;;1.98;64.98;100466.53;12153538;19;20391;-83
2022/12/09 17:12:48;;;;;;;9.13;5.72;;;3.50;59.90;;;1.79;64.85;100440.41;12154654;19;20019;-83
2022/12/09 17:16:50;;;;;;;13.50;8.02;;;3.50;60.10;;;2.00;64.88;100467.38;12154694;19;20744;-83
2022/12/09 17:21:10;;;;;;;11.98;8.15;;;3.50;60.00;;;1.85;64.87;100445.38;12153856;19;20424;-83
2022/12/09 17:25:12;;;;;;;12.13;7.15;;;3.50;59.90;;;1.72;64.74;100418.25;12163186;19;20015;-83
2022/12/09 17:29:14;;;;;;;11.30;6.75;;;3.50;59.90;;;1.94;65.00;100450.31;12170016;19;20021;-83
2022/12/09 17:33:16;;;;;;;12.23;7.40;;;3.50;60.00;;;1.97;64.86;100470.84;12161870;19;20482;-83
2022/12/09 17:37:18;;;;;;;8.45;6.00;;;3.40;59.90;;;1.86;64.80;100459.09;12170523;19;20010;-83
2022/12/09 17:41:22;;;;;;;10.75;6.63;;;3.40;59.80;;;1.95;65.00;100470.03;12167959;19;20597;-83